createdAt,value
2022-10-03T00:01:58.492Z,101675.16
2022-10-03T00:04:31.423Z,101678.38
2022-10-03T00:07:17.980Z,101675.09
2022-10-03T00:10:06.043Z,101677.22
2022-10-03T00:12:47.201Z,101679.34
2022-10-03T00:15:26.128Z,101685.84
2022-10-03T00:18:12.208Z,101685.25
2022-10-03T00:21:01.654Z,101693.44
2022-10-03T00:23:41.404Z,101691.88
2022-10-03T00:26:49.293Z,101697.38
2022-10-03T00:29:24.243Z,101702.91
2022-10-03T00:32:06.273Z,101704.03
2022-10-03T00:34:46.690Z,101701.34
2022-10-03T00:37:28.338Z,101708.66
2022-10-03T00:40:11.829Z,101708.06
2022-10-03T00:43:00.040Z,101713.59
2022-10-03T00:45:57.533Z,101722.63
2022-10-03T00:49:04.302Z,101723.75
2022-10-03T00:51:56.325Z,101723.88
2022-10-03T00:54:52.968Z,101725.00
2022-10-03T00:57:22.304Z,101722.56
2022-10-03T01:00:14.515Z,101729.91
2022-10-03T01:03:16.539Z,101734.69
2022-10-03T01:06:15.005Z,101742.88
2022-10-03T01:08:59.248Z,101739.59
2022-10-03T01:11:44.998Z,101736.31
2022-10-03T01:14:38.926Z,101733.78
2022-10-03T01:17:31.765Z,101735.75
2022-10-03T01:20:23.343Z,101742.22
2022-10-03T01:23:01.934Z,101743.34
2022-10-03T01:25:50.279Z,101749.81
2022-10-03T01:28:41.692Z,101742.88
2022-10-03T01:31:13.631Z,101751.19
2022-10-03T01:33:46.480Z,101748.78
2022-10-03T01:36:32.746Z,101742.69
2022-10-03T01:39:02.001Z,101748.78
2022-10-03T01:41:53.608Z,101758.78
2022-10-03T01:44:28.141Z,101768.03
2022-10-03T01:47:17.013Z,101765.50
2022-10-03T01:49:53.471Z,101769.31
2022-10-03T01:52:30.042Z,101769.53
2022-10-03T01:55:02.619Z,101773.31
2022-10-03T01:57:41.878Z,101774.44
2022-10-03T02:00:19.364Z,101771.03
2022-10-03T02:03:21.550Z,101780.16
2022-10-03T02:05:57.683Z,101779.44
2022-10-03T02:08:33.197Z,101775.19
2022-10-03T02:11:04.363Z,101782.53
2022-10-03T02:13:46.367Z,101784.47
2022-10-03T02:16:39.365Z,101785.59
2022-10-03T02:19:20.186Z,101780.34
2022-10-03T02:21:50.931Z,101788.63
2022-10-03T02:24:17.526Z,101788.75
2022-10-03T02:27:07.436Z,101788.91
2022-10-03T02:30:00.695Z,101789.00
2022-10-03T02:32:58.353Z,101783.78
2022-10-03T02:35:51.963Z,101786.59
2022-10-03T02:38:49.066Z,101785.00
2022-10-03T02:41:52.757Z,101788.69
2022-10-03T02:44:56.219Z,101794.28
2022-10-03T02:47:31.458Z,101782.94
2022-10-03T02:50:03.804Z,101785.78
2022-10-03T02:53:13.632Z,101792.94
2022-10-03T02:55:58.798Z,101799.41
2022-10-03T02:59:02.198Z,101804.75
2022-10-03T03:02:02.351Z,101804.06
2022-10-03T03:04:47.078Z,101795.19
2022-10-03T03:07:51.067Z,101801.50
2022-10-03T03:10:34.483Z,101801.50
2022-10-03T03:13:26.119Z,101807.84
2022-10-03T03:16:10.753Z,101798.94
2022-10-03T03:18:42.115Z,101810.63
2022-10-03T03:21:08.357Z,101804.53
2022-10-03T03:23:41.478Z,101811.72
2022-10-03T03:26:35.601Z,101808.19
2022-10-03T03:29:29.247Z,101808.31
2022-10-03T03:32:16.739Z,101806.63
2022-10-03T03:35:10.642Z,101808.47
2022-10-03T03:38:20.959Z,101808.56
2022-10-03T03:41:13.400Z,101811.38
2022-10-03T03:44:03.248Z,101809.66
2022-10-03T03:46:43.878Z,101822.31
2022-10-03T03:49:35.138Z,101822.56
2022-10-03T03:52:40.856Z,101817.38
2022-10-03T03:55:27.571Z,101821.97
2022-10-03T03:58:02.837Z,101820.41
2022-10-03T04:01:05.738Z,101820.50
2022-10-03T04:03:48.950Z,101822.47
2022-10-03T04:06:36.280Z,101819.91
2022-10-03T04:09:25.442Z,101827.94
2022-10-03T04:11:59.646Z,101822.59
2022-10-03T04:14:46.425Z,101821.75
2022-10-03T04:17:54.297Z,101814.66
2022-10-03T04:20:46.566Z,101826.25
2022-10-03T04:23:36.501Z,101833.41
2022-10-03T04:26:21.659Z,101838.66
2022-10-03T04:29:17.015Z,101839.66
2022-10-03T04:31:58.536Z,101830.63
2022-10-03T04:34:32.916Z,101827.84
2022-10-03T04:37:20.390Z,101829.53
2022-10-03T04:40:17.392Z,101829.44
2022-10-03T04:42:55.926Z,101837.22
2022-10-03T04:45:40.606Z,101834.28
2022-10-03T04:48:18.928Z,101843.91
2022-10-03T04:50:57.277Z,101845.34
2022-10-03T04:53:46.044Z,101843.28
2022-10-03T04:56:32.510Z,101841.09
2022-10-03T04:59:28.607Z,101846.09
2022-10-03T05:02:15.391Z,101844.00
2022-10-03T05:05:15.781Z,101844.47
2022-10-03T05:07:51.238Z,101850.31
2022-10-03T05:10:31.291Z,101852.63
2022-10-03T05:13:11.559Z,101852.25
2022-10-03T05:15:55.233Z,101848.19
2022-10-03T05:18:41.856Z,101856.88
2022-10-03T05:21:20.422Z,101861.84
2022-10-03T05:24:03.195Z,101871.22
2022-10-03T05:26:59.171Z,101864.63
2022-10-03T05:29:40.541Z,101868.63
2022-10-03T05:32:44.800Z,101865.59
2022-10-03T05:35:31.774Z,101874.13
2022-10-03T05:38:13.226Z,101875.56
2022-10-03T05:40:44.307Z,101874.31
2022-10-03T05:43:28.072Z,101876.47
2022-10-03T05:46:12.496Z,101880.63
2022-10-03T05:48:50.171Z,101882.94
2022-10-03T05:51:37.161Z,101887.94
2022-10-03T05:54:21.882Z,101884.97
2022-10-03T05:57:26.921Z,101893.50
2022-10-03T06:00:07.351Z,101894.81
2022-10-03T06:03:10.763Z,101894.44
2022-10-03T06:05:45.994Z,101883.44
2022-10-03T06:08:49.362Z,101894.47
2022-10-03T06:11:24.719Z,101893.09
2022-10-03T06:13:54.225Z,101904.31
2022-10-03T06:16:33.181Z,101896.72
2022-10-03T06:19:32.292Z,101906.94
2022-10-03T06:21:58.567Z,101901.03
2022-10-03T06:24:50.004Z,101907.59
2022-10-03T06:28:02.405Z,101907.78
2022-10-03T06:31:07.314Z,101910.03
2022-10-03T06:33:56.013Z,101905.84
2022-10-03T06:36:42.772Z,101907.16
2022-10-03T06:39:51.212Z,101914.69
2022-10-03T06:42:52.521Z,101916.00
2022-10-03T06:45:31.011Z,101916.44
2022-10-03T06:48:22.030Z,101922.09
2022-10-03T06:51:30.616Z,101925.97
2022-10-03T06:54:35.322Z,101917.25
2022-10-03T06:57:19.026Z,101923.91
2022-10-03T07:00:09.822Z,101925.09
2022-10-03T07:03:10.536Z,101924.53
2022-10-03T07:06:18.230Z,101927.38
2022-10-03T07:09:01.769Z,101923.16
2022-10-03T07:11:29.257Z,101935.31
2022-10-03T07:14:09.741Z,101944.56
2022-10-03T07:17:00.262Z,101941.34
2022-10-03T07:19:57.223Z,101945.16
2022-10-03T07:22:35.774Z,101945.28
2022-10-03T07:25:34.575Z,101951.09
2022-10-03T07:28:23.966Z,101951.53
2022-10-03T07:31:05.724Z,101955.81
2022-10-03T07:33:47.421Z,101947.31
2022-10-03T07:36:41.694Z,101952.13
2022-10-03T07:39:45.527Z,101958.66
2022-10-03T07:42:21.201Z,101954.69
2022-10-03T07:45:00.611Z,101950.41
2022-10-03T07:47:42.120Z,101966.72
2022-10-03T07:50:40.369Z,101971.38
2022-10-03T07:53:44.417Z,101966.13
2022-10-03T07:56:32.428Z,101971.72
2022-10-03T07:59:43.473Z,101974.53
2022-10-03T08:02:32.328Z,101980.06
2022-10-03T08:05:33.713Z,101983.72
2022-10-03T08:08:21.927Z,101985.69
2022-10-03T08:11:07.219Z,101993.19
2022-10-03T08:14:01.436Z,101986.63
2022-10-03T08:16:46.774Z,101993.44
2022-10-03T08:19:15.811Z,101996.69
2022-10-03T08:21:57.213Z,101994.56
2022-10-03T08:24:45.171Z,101996.81
2022-10-03T08:27:33.055Z,101997.09
2022-10-03T08:30:20.787Z,101993.66
2022-10-03T08:33:06.617Z,102003.69
2022-10-03T08:35:54.699Z,102001.09
2022-10-03T08:38:33.542Z,102002.88
2022-10-03T08:41:37.631Z,101997.59
2022-10-03T08:44:38.449Z,102006.50
2022-10-03T08:48:02.491Z,101994.66
2022-10-03T08:50:50.374Z,101996.16
2022-10-03T08:53:16.643Z,102004.19
2022-10-03T08:56:15.072Z,102003.97
2022-10-03T08:59:07.485Z,102004.44
2022-10-03T09:02:19.935Z,102010.28
2022-10-03T09:05:07.739Z,102001.09
2022-10-03T09:08:14.281Z,102003.72
2022-10-03T09:11:08.727Z,102001.91
2022-10-03T09:13:56.940Z,102003.13
2022-10-03T09:16:29.107Z,101995.72
2022-10-03T09:19:16.734Z,101997.25
2022-10-03T09:21:46.068Z,102011.28
2022-10-03T09:24:50.195Z,102011.84
2022-10-03T09:27:38.118Z,101993.44
2022-10-03T09:30:18.550Z,101999.44
2022-10-03T09:33:39.163Z,101997.94
2022-10-03T09:36:20.868Z,101999.84
2022-10-03T09:39:15.978Z,101992.25
2022-10-03T09:42:00.261Z,101993.31
2022-10-03T09:44:39.703Z,101985.53
2022-10-03T09:47:39.683Z,101987.28
2022-10-03T09:50:21.426Z,101996.44
2022-10-03T09:53:12.539Z,101984.97
2022-10-03T09:56:04.872Z,101986.00
2022-10-03T09:59:05.496Z,101978.25
2022-10-03T10:01:46.115Z,101980.84
2022-10-03T10:04:53.599Z,101975.25
2022-10-03T10:07:53.176Z,101974.97
2022-10-03T10:10:28.687Z,101970.25
2022-10-03T10:13:13.867Z,101963.47
2022-10-03T10:15:54.248Z,101977.56
2022-10-03T10:18:40.387Z,101970.78
2022-10-03T10:21:32.647Z,101966.69
2022-10-03T10:24:17.434Z,101967.19
2022-10-03T10:27:08.709Z,101965.81
2022-10-03T10:29:56.507Z,101961.91
2022-10-03T10:32:49.009Z,101954.41
2022-10-03T10:35:37.254Z,101967.16
2022-10-03T10:38:31.900Z,101958.81
2022-10-03T10:41:17.151Z,101946.72
2022-10-03T10:44:19.894Z,101944.78
2022-10-03T10:47:14.769Z,101944.91
2022-10-03T10:50:12.219Z,101944.59
2022-10-03T10:53:09.792Z,101948.41
2022-10-03T10:55:51.470Z,101945.03
2022-10-03T10:58:42.473Z,101946.78
2022-10-03T11:01:30.529Z,101946.63
2022-10-03T11:04:32.986Z,101946.19
2022-10-03T11:07:25.376Z,101941.53
2022-10-03T11:10:00.906Z,101940.78
2022-10-03T11:12:46.664Z,101938.88
2022-10-03T11:15:25.160Z,101939.34
2022-10-03T11:18:07.215Z,101944.63
2022-10-03T11:20:49.130Z,101943.78
2022-10-03T11:23:34.175Z,101939.34
2022-10-03T11:26:34.800Z,101939.19
2022-10-03T11:29:40.950Z,101941.53
2022-10-03T11:32:48.686Z,101935.00
2022-10-03T11:35:52.787Z,101924.69
2022-10-03T11:38:34.090Z,101924.56
2022-10-03T11:41:25.690Z,101921.53
2022-10-03T11:44:15.221Z,101918.09
2022-10-03T11:46:59.635Z,101929.25
2022-10-03T11:49:50.990Z,101918.97
2022-10-03T11:52:45.951Z,101921.16
2022-10-03T11:55:29.769Z,101924.81
2022-10-03T11:58:14.727Z,101925.91
2022-10-03T12:00:45.856Z,101917.84
2022-10-03T12:03:30.000Z,101920.81
2022-10-03T12:06:19.244Z,101924.44
2022-10-03T12:09:07.244Z,101911.59
2022-10-03T12:11:43.779Z,101916.91
2022-10-03T12:14:11.402Z,101908.78
2022-10-03T12:16:58.095Z,101912.25
2022-10-03T12:19:38.555Z,101910.63
2022-10-03T12:22:36.755Z,101899.09
2022-10-03T12:25:23.912Z,101908.84
2022-10-03T12:28:02.219Z,101904.09
2022-10-03T12:30:40.715Z,101902.50
2022-10-03T12:33:19.590Z,101899.03
2022-10-03T12:36:09.834Z,101898.50
2022-10-03T12:38:42.673Z,101895.84
2022-10-03T12:41:18.268Z,101897.94
2022-10-03T12:43:50.832Z,101891.25
2022-10-03T12:46:32.126Z,101889.16
2022-10-03T12:49:20.653Z,101890.00
2022-10-03T12:51:56.517Z,101889.16
2022-10-03T12:55:07.461Z,101893.38
2022-10-03T12:57:42.534Z,101888.34
2022-10-03T13:00:46.056Z,101886.31
2022-10-03T13:03:34.582Z,101884.03
2022-10-03T13:06:12.594Z,101889.34
2022-10-03T13:09:06.842Z,101887.25
2022-10-03T13:11:55.043Z,101889.38
2022-10-03T13:14:55.218Z,101896.75
2022-10-03T13:17:52.663Z,101895.47
2022-10-03T13:20:29.897Z,101894.81
2022-10-03T13:23:20.085Z,101896.00
2022-10-03T13:26:15.898Z,101901.63
2022-10-03T13:28:59.419Z,101895.28
2022-10-03T13:31:32.973Z,101905.13
2022-10-03T13:34:15.793Z,101901.13
2022-10-03T13:37:05.199Z,101896.69
2022-10-03T13:39:44.428Z,101903.78
2022-10-03T13:42:33.535Z,101900.81
2022-10-03T13:45:12.992Z,101900.53
2022-10-03T13:47:42.294Z,101893.97
2022-10-03T13:50:25.841Z,101900.69
2022-10-03T13:53:09.319Z,101898.53
2022-10-03T13:55:46.478Z,101898.06
2022-10-03T13:58:25.055Z,101884.66
2022-10-03T14:01:01.248Z,101881.47
2022-10-03T14:03:35.722Z,101877.03
2022-10-03T14:06:14.212Z,101882.72
2022-10-03T14:09:07.948Z,101885.22
2022-10-03T14:11:47.599Z,101876.88
2022-10-03T14:14:47.927Z,101881.47
2022-10-03T14:17:45.104Z,101876.88
2022-10-03T14:20:20.186Z,101880.63
2022-10-03T14:23:00.811Z,101884.22
2022-10-03T14:26:00.233Z,101878.75
2022-10-03T14:28:49.812Z,101870.56
2022-10-03T14:31:31.743Z,101874.97
2022-10-03T14:34:23.405Z,101879.38
2022-10-03T14:36:53.823Z,101872.91
2022-10-03T14:39:46.067Z,101873.28
2022-10-03T14:42:27.319Z,101868.22
2022-10-03T14:44:58.538Z,101869.44
2022-10-03T14:47:26.231Z,101862.72
2022-10-03T14:49:59.986Z,101861.88
2022-10-03T14:52:41.401Z,101856.44
2022-10-03T14:55:17.615Z,101864.78
2022-10-03T14:58:10.341Z,101856.44
2022-10-03T15:00:47.623Z,101854.53
2022-10-03T15:03:17.592Z,101854.72
2022-10-03T15:05:56.329Z,101847.38
2022-10-03T15:08:26.639Z,101849.25
2022-10-03T15:10:55.742Z,101849.25
2022-10-03T15:13:26.437Z,101852.81
2022-10-03T15:15:55.339Z,101850.31
2022-10-03T15:18:24.426Z,101845.88
2022-10-03T15:20:55.053Z,101839.41
2022-10-03T15:23:27.709Z,101843.16
2022-10-03T15:25:56.402Z,101833.28
2022-10-03T15:28:29.345Z,101828.88
2022-10-03T15:30:57.881Z,101833.50
2022-10-03T15:33:32.279Z,101825.50
2022-10-03T15:36:18.460Z,101826.56
2022-10-03T15:38:52.171Z,101823.19
2022-10-03T15:41:35.948Z,101820.66
2022-10-03T15:44:40.133Z,101813.50
2022-10-03T15:47:13.758Z,101815.41
2022-10-03T15:49:50.167Z,101810.13
2022-10-03T15:52:21.201Z,101813.44
2022-10-03T15:55:06.720Z,101812.63
2022-10-03T15:57:44.260Z,101811.13
2022-10-03T16:00:26.501Z,101809.84
2022-10-03T16:03:14.142Z,101799.53
2022-10-03T16:05:56.190Z,101799.06
2022-10-03T16:08:27.089Z,101799.44
2022-10-03T16:11:09.127Z,101799.84
2022-10-03T16:13:44.449Z,101802.97
2022-10-03T16:16:19.342Z,101799.97
2022-10-03T16:19:05.771Z,101801.38
2022-10-03T16:21:31.996Z,101798.66
2022-10-03T16:24:01.758Z,101792.94
2022-10-03T16:26:34.667Z,101800.03
2022-10-03T16:29:11.612Z,101802.06
2022-10-03T16:31:50.478Z,101799.47
2022-10-03T16:34:20.281Z,101806.94
2022-10-03T16:36:50.050Z,101798.88
2022-10-03T16:39:34.311Z,101793.72
2022-10-03T16:42:11.891Z,101790.28
2022-10-03T16:44:50.815Z,101796.03
2022-10-03T16:47:28.718Z,101790.00
2022-10-03T16:50:15.963Z,101794.91
2022-10-03T16:52:46.494Z,101804.22
2022-10-03T16:55:20.845Z,101805.34
2022-10-03T16:58:02.408Z,101812.94
2022-10-03T17:00:38.256Z,101806.09
2022-10-03T17:03:15.987Z,101811.78
2022-10-03T17:05:47.167Z,101798.66
2022-10-03T17:08:40.053Z,101797.25
2022-10-03T17:11:06.464Z,101796.63
2022-10-03T17:13:46.939Z,101795.19
2022-10-03T17:16:25.643Z,101790.88
2022-10-03T17:19:11.422Z,101788.56
2022-10-03T17:21:42.178Z,101791.56
2022-10-03T17:24:16.154Z,101785.53
2022-10-03T17:26:46.062Z,101785.59
2022-10-03T17:29:23.991Z,101789.38
2022-10-03T17:32:10.006Z,101793.19
2022-10-03T17:34:52.984Z,101790.69
2022-10-03T17:37:28.048Z,101790.88
2022-10-03T17:40:31.996Z,101787.53
2022-10-03T17:43:06.194Z,101794.03
2022-10-03T17:45:38.023Z,101791.53
2022-10-03T17:48:18.614Z,101794.44
2022-10-03T17:51:02.496Z,101785.50
2022-10-03T17:53:36.472Z,101789.06
2022-10-03T17:56:13.158Z,101781.81
2022-10-03T17:58:45.383Z,101776.41
2022-10-03T18:01:19.391Z,101778.16
2022-10-03T18:03:53.236Z,101781.53
2022-10-03T18:06:28.807Z,101767.16
2022-10-03T18:08:56.612Z,101766.09
2022-10-03T18:11:28.566Z,101771.53
2022-10-03T18:14:22.331Z,101769.69
2022-10-03T18:16:59.787Z,101770.53
2022-10-03T18:19:55.586Z,101774.09
2022-10-03T18:22:40.507Z,101767.69
2022-10-03T18:25:54.254Z,101769.38
2022-10-03T18:28:56.272Z,101770.34
2022-10-03T18:31:25.689Z,101771.19
2022-10-03T18:33:57.929Z,101779.16
2022-10-03T18:36:29.291Z,101773.56
2022-10-03T18:39:01.455Z,101773.38
2022-10-03T18:41:28.308Z,101775.06
2022-10-03T18:44:00.164Z,101767.59
2022-10-03T18:46:39.873Z,101764.38
2022-10-03T18:49:35.428Z,101767.75
2022-10-03T18:52:13.301Z,101767.53
2022-10-03T18:55:00.301Z,101766.31
2022-10-03T18:57:35.108Z,101767.16
2022-10-03T19:00:18.324Z,101768.47
2022-10-03T19:02:57.635Z,101768.28
2022-10-03T19:05:30.981Z,101768.09
2022-10-03T19:08:22.401Z,101773.28
2022-10-03T19:10:55.271Z,101776.66
2022-10-03T19:13:45.471Z,101777.44
2022-10-03T19:16:32.243Z,101775.41
2022-10-03T19:19:28.843Z,101769.78
2022-10-03T19:21:56.730Z,101779.38
2022-10-03T19:24:53.311Z,101784.41
2022-10-03T19:27:18.779Z,101779.31
2022-10-03T19:29:52.917Z,101778.63
2022-10-03T19:32:42.512Z,101780.81
2022-10-03T19:35:13.615Z,101780.28
2022-10-03T19:37:45.972Z,101784.16
2022-10-03T19:40:31.514Z,101770.09
2022-10-03T19:43:31.892Z,101765.84
2022-10-03T19:46:10.974Z,101774.28
2022-10-03T19:48:46.259Z,101771.06
2022-10-03T19:51:25.751Z,101771.22
2022-10-03T19:53:54.525Z,101772.38
2022-10-03T19:56:23.539Z,101765.44
2022-10-03T19:59:04.808Z,101773.72
2022-10-03T20:01:49.210Z,101766.59
2022-10-03T20:04:31.880Z,101767.56
2022-10-03T20:06:59.323Z,101765.84
2022-10-03T20:09:27.750Z,101769.44
2022-10-03T20:12:02.808Z,101774.84
2022-10-03T20:14:35.467Z,101772.00
2022-10-03T20:17:12.804Z,101767.56
2022-10-03T20:19:39.072Z,101760.47
2022-10-03T20:22:05.909Z,101764.03
2022-10-03T20:24:39.262Z,101775.69
2022-10-03T20:27:05.692Z,101764.19
2022-10-03T20:29:38.663Z,101771.59
2022-10-03T20:32:06.321Z,101770.88
2022-10-03T20:34:36.322Z,101770.88
2022-10-03T20:37:36.613Z,101756.72
2022-10-03T20:40:17.543Z,101769.50
2022-10-03T20:42:47.590Z,101769.00
2022-10-03T20:45:28.150Z,101764.44
2022-10-03T20:47:58.839Z,101771.00
2022-10-03T20:50:37.028Z,101763.88
2022-10-03T20:53:18.553Z,101763.88
2022-10-03T20:55:50.923Z,101759.63
2022-10-03T20:58:50.996Z,101764.19
2022-10-03T21:01:23.246Z,101756.28
2022-10-03T21:04:06.604Z,101758.28
2022-10-03T21:06:46.961Z,101760.28
2022-10-03T21:09:20.497Z,101753.19
2022-10-03T21:11:54.454Z,101753.50
2022-10-03T21:14:26.773Z,101757.50
2022-10-03T21:16:55.264Z,101760.53
2022-10-03T21:19:33.686Z,101767.91
2022-10-03T21:22:03.854Z,101777.16
2022-10-03T21:24:34.803Z,101775.78
2022-10-03T21:27:28.791Z,101769.69
2022-10-03T21:30:01.302Z,101762.75
2022-10-03T21:32:56.242Z,101756.78
2022-10-03T21:35:29.982Z,101756.13
2022-10-03T21:38:18.038Z,101751.88
2022-10-03T21:41:09.388Z,101754.03
2022-10-03T21:43:58.311Z,101736.28
2022-10-03T21:46:55.436Z,101740.00
2022-10-03T21:49:35.585Z,101736.59
2022-10-03T21:52:17.260Z,101738.59
2022-10-03T21:55:10.186Z,101736.91
2022-10-03T21:58:02.478Z,101733.38
2022-10-03T22:00:47.572Z,101741.59
2022-10-03T22:03:30.201Z,101736.91
2022-10-03T22:06:21.406Z,101733.38
2022-10-03T22:08:49.299Z,101732.53
2022-10-03T22:11:27.752Z,101742.31
2022-10-03T22:14:36.730Z,101738.59
2022-10-03T22:17:07.958Z,101741.03
2022-10-03T22:19:43.244Z,101733.78
2022-10-03T22:22:28.403Z,101729.06
2022-10-03T22:25:20.633Z,101744.09
2022-10-03T22:28:06.820Z,101742.06
2022-10-03T22:30:41.910Z,101739.38
2022-10-03T22:33:14.882Z,101741.75
2022-10-03T22:35:48.246Z,101748.03
2022-10-03T22:38:16.974Z,101756.97
2022-10-03T22:40:46.634Z,101750.56
2022-10-03T22:43:15.309Z,101742.31
2022-10-03T22:45:44.891Z,101729.69
2022-10-03T22:48:17.484Z,101721.28
2022-10-03T22:50:44.550Z,101713.19
2022-10-03T22:53:15.233Z,101712.19
2022-10-03T22:55:49.549Z,101715.56
2022-10-03T22:58:16.692Z,101715.56
2022-10-03T23:00:45.936Z,101709.19
2022-10-03T23:03:34.059Z,101713.56
2022-10-03T23:07:11.463Z,101724.22
2022-10-03T23:09:43.913Z,101722.34
2022-10-03T23:12:11.586Z,101714.25
2022-10-03T23:14:45.242Z,101714.25
2022-10-03T23:17:36.561Z,101711.38
2022-10-03T23:20:26.717Z,101707.53
2022-10-03T23:22:56.809Z,101706.69
2022-10-03T23:25:29.445Z,101692.34
2022-10-03T23:28:21.275Z,101691.34
2022-10-03T23:30:53.857Z,101699.28
2022-10-03T23:33:32.512Z,101695.75
2022-10-03T23:36:16.528Z,101700.13
2022-10-03T23:38:42.850Z,101681.41
2022-10-03T23:41:13.874Z,101690.34
2022-10-03T23:43:48.795Z,101684.25
2022-10-03T23:46:19.401Z,101681.41
2022-10-03T23:48:53.255Z,101680.53
2022-10-03T23:51:23.567Z,101680.53
2022-10-03T23:53:53.466Z,101678.03
2022-10-03T23:56:28.882Z,101673.47
2022-10-03T23:59:08.026Z,101676.31
